Haro Strait: Past 24 Hour Conditions

 

Sentry Shoal - 46131

06:00 PM PDT 17 October 2017Buoy position: 49.92N 125.0W
Disclaimer

This table is a summary of hourly weather conditions for the past 24 hours.
Please note that these observations might not always be representative of weather conditions over their associated marine area.

Date / Time
(PDT)
Wind(knots) Wave height(m) Wave period(s) Pressure(kPa) Air tempC) Water tempC)
17 October 2017
18:00 N 2 gust 2 0.1 3.0 101.9 12 11
17:00 calm 0.2 3.0 101.9 12 12
16:00 NW 2 gust 4 0.3 4.0 101.9 12 11
15:00 ENE 8 gust 10 0.4 4.0 101.8 12 11
14:00 N 14 gust 16 0.5 4.0 101.7 11 11
13:00 N 14 gust 18 0.4 3.0 101.6 11 11
12:00 N 16 gust 18 0.3 3.0 101.5 11 11
11:00 N 14 gust 16 0.4 3.0 101.4 11 11
10:00 NNW 16 gust 19 0.5 3.0 101.2 11 11
9:00 NW 14 gust 19 0.5 3.0 101.0 11 11
8:00 NNW 18 gust 19 0.7 3.0 100.8 10 11
7:00 NNW 19 gust 23 1.0 3.0 100.7 10 10
6:00 N 23 gust 29 1.1 5.0 100.4 11 10
5:00 S 8 gust 14 1.7 5.0 100.4 13 10
4:00 SE 27 gust 33 1.8 6.0 100.2 12 10
3:00 SE 27 gust 35 1.8 6.0 100.3 12 10
2:00 SE 29 gust 35 2.0 5.0 100.5 12 11
1:00 SE 31 N/A N/A 100.6 12 11
0:00 SE 31 gust 37 1.9 6.0 100.7 12 11
16 October 2017
23:00 ESE 27 gust 35 1.9 6.0 100.8 12 11
22:00 SE 27 gust 35 2.0 6.0 101.0 12 11
21:00 SE 27 gust 33 2.1 6.0 101.0 12 11
20:00 SE 29 gust 35 2.1 6.0 101.1 12 11
19:00 SE 27 gust 35 2.1 6.0 101.2 12 11
18:00 SE 27 gust 33 2.1 6.0 101.3 12 11

Zoom-in to make a selection

Map of Pacific - Georgia Basin marine weather areas Tsawwassen Ferry Terminal Sentry Shoal - 46131 Halibut Bank - 46146 La Perouse Bank - 46206 Discovery Island Esquimalt Harbour Kelp Reefs Malahat Race Rocks Lightstation Saturna Island Sheringham Point University of Victoria Victoria Gonzales Victoria Int'l Airport Ballenas Islands Campbell River Airport Comox Airport Entrance Island Fanny Island Nanaimo Airport Sisters Islets Estevan Point Tofino Airport Grief Point Powell River Airport Sechelt Point Atkinson Sand Heads Lightstation Vancouver Harbour Vancouver Int'l Airport West Vancouver Port Alberni Howe Sound - Pam Rocks Squamish Airport
Legend:
buoy Buoy
land station Land Station

Pacific - Georgia Basin Area

Another Region

What we are doing

Date modified: